createdAt,value
2022-09-29T00:02:02.100Z,6.90
2022-09-29T00:07:07.551Z,6.93
2022-09-29T00:12:11.636Z,7.28
2022-09-29T00:17:16.042Z,6.72
2022-09-29T00:22:20.812Z,7.43
2022-09-29T00:27:24.831Z,7.20
2022-09-29T00:32:28.244Z,7.30
2022-09-29T00:37:33.650Z,7.45
2022-09-29T00:42:36.939Z,7.57
2022-09-29T00:47:46.031Z,7.68
2022-09-29T00:52:56.553Z,7.50
2022-09-29T00:58:05.713Z,8.40
2022-09-29T01:03:13.622Z,7.80
2022-09-29T01:08:23.541Z,8.07
2022-09-29T01:13:26.904Z,8.32
2022-09-29T01:18:32.287Z,9.60
2022-09-29T01:24:11.832Z,16.35
2022-09-29T01:30:06.140Z,14.82
2022-09-29T01:35:18.885Z,9.90
2022-09-29T01:40:31.388Z,8.52
2022-09-29T01:45:38.736Z,8.48
2022-09-29T01:50:48.427Z,9.82
2022-09-29T01:55:56.078Z,10.13
2022-09-29T02:01:05.184Z,9.88
2022-09-29T02:06:15.250Z,7.28
2022-09-29T02:11:19.916Z,6.63
2022-09-29T02:16:29.059Z,7.25
2022-09-29T02:21:55.596Z,6.60
2022-09-29T02:27:00.223Z,6.50
2022-09-29T02:32:05.217Z,7.32
2022-09-29T02:37:28.172Z,7.13
2022-09-29T02:42:40.446Z,9.15
2022-09-29T02:48:01.090Z,8.52
2022-09-29T02:53:14.667Z,10.38
2022-09-29T02:58:27.895Z,11.93
2022-09-29T03:03:31.337Z,13.00
2022-09-29T03:08:36.097Z,11.60
2022-09-29T03:13:39.723Z,10.23
2022-09-29T03:18:44.987Z,8.57
2022-09-29T03:23:53.079Z,8.68
2022-09-29T03:28:59.778Z,8.80
2022-09-29T03:34:03.092Z,8.80
2022-09-29T03:39:08.577Z,8.02
2022-09-29T03:44:11.955Z,8.27
2022-09-29T03:49:17.047Z,8.02
2022-09-29T03:54:21.781Z,9.02
2022-09-29T04:04:28.929Z,8.70
2022-09-29T04:09:33.601Z,8.68
2022-09-29T04:14:37.016Z,9.00
2022-09-29T04:19:41.477Z,8.70
2022-09-29T04:24:48.157Z,8.85
2022-09-29T04:29:52.236Z,8.07
2022-09-29T04:34:55.671Z,8.80
2022-09-29T04:40:01.107Z,8.63
2022-09-29T04:45:04.957Z,8.80
2022-09-29T04:50:10.529Z,9.23
2022-09-29T04:55:16.177Z,9.20
2022-09-29T05:00:20.383Z,9.13
2022-09-29T05:05:24.500Z,10.43
2022-09-29T05:10:29.251Z,10.13
2022-09-29T05:15:33.250Z,9.55
2022-09-29T05:20:44.711Z,8.80
2022-09-29T05:25:56.335Z,8.35
2022-09-29T05:31:03.871Z,8.95
2022-09-29T05:36:09.706Z,8.95
2022-09-29T05:41:17.040Z,7.82
2022-09-29T05:46:21.756Z,8.18
2022-09-29T05:51:27.664Z,15.45
2022-09-29T05:56:33.046Z,7.05
2022-09-29T06:01:37.402Z,6.95
2022-09-29T06:06:42.026Z,8.35
2022-09-29T06:11:47.453Z,6.72
2022-09-29T06:16:52.441Z,12.90
2022-09-29T06:21:56.649Z,16.15
2022-09-29T06:27:02.197Z,10.35
2022-09-29T06:32:06.399Z,8.10
2022-09-29T06:37:29.502Z,18.25
2022-09-29T06:42:34.431Z,9.65
2022-09-29T06:47:38.500Z,7.82
2022-09-29T06:52:43.134Z,13.63
2022-09-29T06:57:50.239Z,11.20
2022-09-29T07:02:54.579Z,9.60
2022-09-29T07:08:01.090Z,7.78
2022-09-29T07:13:09.041Z,6.60
2022-09-29T07:18:13.034Z,7.32
2022-09-29T07:23:16.350Z,7.30
2022-09-29T07:28:21.801Z,8.88
2022-09-29T07:33:36.263Z,8.70
2022-09-29T07:38:42.490Z,9.05
2022-09-29T07:43:47.503Z,9.38
2022-09-29T07:48:51.562Z,10.32
2022-09-29T07:53:54.837Z,9.60
2022-09-29T07:59:00.864Z,10.40
2022-09-29T08:04:04.615Z,11.15
2022-09-29T08:09:08.440Z,10.50
2022-09-29T08:14:13.331Z,10.77
2022-09-29T08:19:18.041Z,11.63
2022-09-29T08:24:21.465Z,10.73
2022-09-29T08:29:30.710Z,10.25
2022-09-29T08:34:39.264Z,10.70
2022-09-29T08:39:43.361Z,10.93
2022-09-29T08:44:56.584Z,10.45
2022-09-29T08:50:06.824Z,10.98
2022-09-29T08:55:26.438Z,12.00
2022-09-29T09:00:41.405Z,11.82
2022-09-29T09:06:02.194Z,12.30
2022-09-29T09:11:18.711Z,11.93
2022-09-29T09:16:35.691Z,10.70
2022-09-29T09:21:44.414Z,10.45
2022-09-29T09:26:49.323Z,11.18
2022-09-29T09:32:00.384Z,10.48
2022-09-29T09:37:10.335Z,9.93
2022-09-29T09:42:19.483Z,9.98
2022-09-29T09:47:31.462Z,10.00
2022-09-29T09:52:42.321Z,8.57
2022-09-29T09:58:04.593Z,8.05
2022-09-29T10:03:11.155Z,7.80
2022-09-29T10:08:24.562Z,6.80
2022-09-29T10:13:29.569Z,6.63
2022-09-29T10:18:41.908Z,6.05
2022-09-29T10:23:52.756Z,6.40
2022-09-29T10:29:00.513Z,5.70
2022-09-29T10:34:17.484Z,5.25
2022-09-29T10:39:36.533Z,4.80
2022-09-29T10:44:41.228Z,4.15
2022-09-29T11:00:00.129Z,4.60
2022-09-29T11:05:18.315Z,4.45
2022-09-29T11:10:32.361Z,4.63
2022-09-29T11:15:42.675Z,4.97
2022-09-29T11:20:53.325Z,4.95
2022-09-29T11:26:29.695Z,4.95
2022-09-29T11:31:55.571Z,5.60
2022-09-29T11:37:15.230Z,5.35
2022-09-29T11:42:40.344Z,5.30
2022-09-29T11:48:16.797Z,4.93
2022-09-29T11:53:43.343Z,5.70
2022-09-29T11:59:02.642Z,5.55
2022-09-29T12:04:18.924Z,5.68
2022-09-29T12:09:42.347Z,5.75
2022-09-29T12:15:04.520Z,6.43
2022-09-29T12:20:18.670Z,6.45
2022-09-29T12:25:28.869Z,6.10
2022-09-29T12:30:38.797Z,6.28
2022-09-29T12:35:51.256Z,5.90
2022-09-29T12:41:07.188Z,6.10
2022-09-29T12:46:20.578Z,5.95
2022-09-29T12:51:32.950Z,5.35
2022-09-29T12:56:42.165Z,5.40
2022-09-29T13:01:46.336Z,5.55
2022-09-29T13:07:10.269Z,5.55
2022-09-29T13:12:43.203Z,5.88
2022-09-29T13:18:08.908Z,5.80
2022-09-29T13:23:41.867Z,5.55
2022-09-29T13:28:50.438Z,4.72
2022-09-29T13:33:56.739Z,4.82
2022-09-29T13:39:02.619Z,5.18
2022-09-29T13:44:22.794Z,4.88
2022-09-29T13:49:32.666Z,4.80
2022-09-29T13:54:39.399Z,4.53
2022-09-29T13:59:48.968Z,4.40
2022-09-29T14:04:56.338Z,4.70
2022-09-29T14:10:07.213Z,4.38
2022-09-29T14:15:19.713Z,4.85
2022-09-29T14:20:27.616Z,5.55
2022-09-29T14:25:37.069Z,5.78
2022-09-29T14:30:49.417Z,6.05
2022-09-29T14:36:05.167Z,5.75
2022-09-29T14:41:25.866Z,6.30
2022-09-29T14:47:14.696Z,7.60
2022-09-29T14:52:28.623Z,7.80
2022-09-29T14:57:47.560Z,7.50
2022-09-29T15:03:00.252Z,7.05
2022-09-29T15:08:28.811Z,8.23
2022-09-29T15:13:32.670Z,8.95
2022-09-29T15:18:58.358Z,9.43
2022-09-29T15:24:23.036Z,9.13
2022-09-29T15:29:27.578Z,17.38
2022-09-29T15:34:32.866Z,16.80
2022-09-29T15:39:45.995Z,14.20
2022-09-29T15:44:55.615Z,14.93
2022-09-29T15:50:06.151Z,10.63
2022-09-29T15:55:16.938Z,10.07
2022-09-29T16:00:58.807Z,11.95
2022-09-29T16:06:08.277Z,9.65
2022-09-29T16:11:21.993Z,13.43
2022-09-29T16:16:34.587Z,13.57
2022-09-29T16:21:40.828Z,13.48
2022-09-29T16:26:47.478Z,11.45
2022-09-29T16:31:52.856Z,10.75
2022-09-29T16:37:01.076Z,11.80
2022-09-29T16:42:07.966Z,10.98
2022-09-29T16:47:18.118Z,16.02
2022-09-29T16:52:28.560Z,27.92
2022-09-29T16:57:35.232Z,16.75
2022-09-29T17:02:39.164Z,19.60
2022-09-29T17:07:45.596Z,19.53
2022-09-29T17:12:49.625Z,18.10
2022-09-29T17:17:54.324Z,30.83
2022-09-29T17:28:14.034Z,17.98
2022-09-29T17:33:18.933Z,21.67
2022-09-29T17:38:24.701Z,17.13
2022-09-29T17:43:28.712Z,18.02
2022-09-29T17:48:35.097Z,23.27
2022-09-29T17:53:40.390Z,28.55
2022-09-29T17:58:44.748Z,24.35
2022-09-29T18:03:48.878Z,24.17
2022-09-29T18:08:55.707Z,26.10
2022-09-29T18:13:59.793Z,27.83
2022-09-29T18:19:04.149Z,28.05
2022-09-29T18:24:10.195Z,27.88
2022-09-29T18:29:18.589Z,26.42
2022-09-29T18:34:23.329Z,22.63
2022-09-29T18:44:33.605Z,15.88
2022-09-29T18:49:38.058Z,15.48
2022-09-29T18:54:42.996Z,16.80
2022-09-29T18:59:49.849Z,15.23
2022-09-29T19:04:53.938Z,14.57
2022-09-29T19:09:58.890Z,13.38
2022-09-29T19:20:09.914Z,15.20
2022-09-29T19:30:24.060Z,17.73
2022-09-29T19:35:29.867Z,23.27
2022-09-29T19:40:38.306Z,21.17
2022-09-29T19:45:43.061Z,20.25
2022-09-29T19:56:14.185Z,18.20
2022-09-29T20:01:18.379Z,16.35
2022-09-29T20:06:22.936Z,15.38
2022-09-29T20:11:27.750Z,15.60
2022-09-29T20:21:39.887Z,16.02
2022-09-29T20:26:46.112Z,15.20
2022-09-29T20:31:50.224Z,12.95
2022-09-29T20:36:55.217Z,13.32
2022-09-29T20:42:00.944Z,10.75
2022-09-29T20:47:05.126Z,11.25
2022-09-29T20:52:09.411Z,10.20
2022-09-29T20:57:15.224Z,10.30
2022-09-29T21:02:18.714Z,11.18
2022-09-29T21:07:37.919Z,12.23
2022-09-29T21:12:42.694Z,12.88
2022-09-29T21:17:46.913Z,14.07
2022-09-29T21:22:50.441Z,16.13
2022-09-29T21:27:56.193Z,12.75
2022-09-29T21:33:00.222Z,16.45
2022-09-29T21:38:04.274Z,17.60
2022-09-29T21:43:08.914Z,18.30
2022-09-29T21:53:16.067Z,11.35
2022-09-29T21:58:22.031Z,11.00
2022-09-29T22:03:26.115Z,11.02
2022-09-29T22:08:31.093Z,15.07
2022-09-29T22:13:37.339Z,15.43
2022-09-29T22:18:43.116Z,14.55
2022-09-29T22:23:46.830Z,15.63
2022-09-29T22:28:53.171Z,22.98
2022-09-29T22:33:58.731Z,14.05
2022-09-29T22:39:03.382Z,15.85
2022-09-29T22:44:09.014Z,10.38
2022-09-29T22:49:13.287Z,9.52
2022-09-29T22:54:16.610Z,9.13
2022-09-29T22:59:22.750Z,9.73
2022-09-29T23:04:26.340Z,10.00
2022-09-29T23:09:29.765Z,18.52
2022-09-29T23:14:34.610Z,20.67
2022-09-29T23:24:42.072Z,10.77
2022-09-29T23:29:47.545Z,8.35
2022-09-29T23:34:50.916Z,9.00
2022-09-29T23:39:55.202Z,9.88
2022-09-29T23:44:59.841Z,13.57
2022-09-29T23:50:04.429Z,15.10
2022-09-29T23:55:08.195Z,15.65
